sensor_id;sensor_type;location;lat;lon;timestamp;temperature;humidity
44117;DHT22;29781;49.480;8.512;2023-02-28T00:02:24;-0.10;99.90
44117;DHT22;29781;49.480;8.512;2023-02-28T00:04:50;-0.20;99.90
44117;DHT22;29781;49.480;8.512;2023-02-28T00:07:18;-0.20;99.90
44117;DHT22;29781;49.480;8.512;2023-02-28T00:09:43;-0.20;99.90
44117;DHT22;29781;49.480;8.512;2023-02-28T00:12:09;-0.20;99.90
44117;DHT22;29781;49.480;8.512;2023-02-28T00:14:36;-0.20;99.90
44117;DHT22;29781;49.480;8.512;2023-02-28T00:17:01;-0.30;99.90
44117;DHT22;29781;49.480;8.512;2023-02-28T00:19:26;-0.30;99.90
44117;DHT22;29781;49.480;8.512;2023-02-28T00:21:52;-0.40;99.90
44117;DHT22;29781;49.480;8.512;2023-02-28T00:24:17;-0.40;99.90
44117;DHT22;29781;49.480;8.512;2023-02-28T00:26:43;-0.50;99.90
44117;DHT22;29781;49.480;8.512;2023-02-28T00:29:08;-0.40;99.90
44117;DHT22;29781;49.480;8.512;2023-02-28T00:31:34;-0.40;99.90
44117;DHT22;29781;49.480;8.512;2023-02-28T00:34:00;-0.40;99.90
44117;DHT22;29781;49.480;8.512;2023-02-28T00:36:25;-0.40;99.90
44117;DHT22;29781;49.480;8.512;2023-02-28T00:38:51;-0.30;99.90
44117;DHT22;29781;49.480;8.512;2023-02-28T00:41:16;-0.30;99.90
44117;DHT22;29781;49.480;8.512;2023-02-28T00:43:41;-0.30;99.90
44117;DHT22;29781;49.480;8.512;2023-02-28T00:46:07;-0.40;99.90
44117;DHT22;29781;49.480;8.512;2023-02-28T00:48:33;-0.30;99.90
44117;DHT22;29781;49.480;8.512;2023-02-28T00:50:59;-0.30;99.90
44117;DHT22;29781;49.480;8.512;2023-02-28T00:53:24;-0.40;99.90
44117;DHT22;29781;49.480;8.512;2023-02-28T00:55:50;-0.50;99.90
44117;DHT22;29781;49.480;8.512;2023-02-28T00:58:16;-0.40;99.90
44117;DHT22;29781;49.480;8.512;2023-02-28T01:00:41;-0.40;99.90
44117;DHT22;29781;49.480;8.512;2023-02-28T01:03:06;-0.40;99.90
44117;DHT22;29781;49.480;8.512;2023-02-28T01:05:32;-0.40;99.90
44117;DHT22;29781;49.480;8.512;2023-02-28T01:07:57;-0.40;99.90
44117;DHT22;29781;49.480;8.512;2023-02-28T01:10:23;-0.40;99.90
44117;DHT22;29781;49.480;8.512;2023-02-28T01:12:48;-0.40;99.90
44117;DHT22;29781;49.480;8.512;2023-02-28T01:15:14;-0.50;99.90
44117;DHT22;29781;49.480;8.512;2023-02-28T01:17:39;-0.50;99.90
44117;DHT22;29781;49.480;8.512;2023-02-28T01:20:05;-0.60;99.90
44117;DHT22;29781;49.480;8.512;2023-02-28T01:22:30;-0.60;99.90
44117;DHT22;29781;49.480;8.512;2023-02-28T01:24:56;-0.50;99.90
44117;DHT22;29781;49.480;8.512;2023-02-28T01:27:21;-0.50;99.90
44117;DHT22;29781;49.480;8.512;2023-02-28T01:29:47;-0.50;99.90
44117;DHT22;29781;49.480;8.512;2023-02-28T01:32:12;-0.60;99.90
44117;DHT22;29781;49.480;8.512;2023-02-28T01:34:37;-0.50;99.90
44117;DHT22;29781;49.480;8.512;2023-02-28T01:37:03;-0.60;99.90
44117;DHT22;29781;49.480;8.512;2023-02-28T01:39:29;-0.60;99.90
44117;DHT22;29781;49.480;8.512;2023-02-28T01:41:54;-0.60;99.90
44117;DHT22;29781;49.480;8.512;2023-02-28T01:47:04;-0.70;99.90
44117;DHT22;29781;49.480;8.512;2023-02-28T01:49:29;-0.80;99.90
44117;DHT22;29781;49.480;8.512;2023-02-28T01:51:55;-0.90;99.90
44117;DHT22;29781;49.480;8.512;2023-02-28T01:54:25;-1.00;99.90
44117;DHT22;29781;49.480;8.512;2023-02-28T01:57:01;-1.00;99.90
44117;DHT22;29781;49.480;8.512;2023-02-28T01:59:29;-1.00;99.90
44117;DHT22;29781;49.480;8.512;2023-02-28T02:01:58;-1.10;99.90
44117;DHT22;29781;49.480;8.512;2023-02-28T02:04:26;-1.10;99.90
44117;DHT22;29781;49.480;8.512;2023-02-28T02:06:52;-1.00;99.90
44117;DHT22;29781;49.480;8.512;2023-02-28T02:09:17;-1.00;99.90
44117;DHT22;29781;49.480;8.512;2023-02-28T02:11:43;-1.00;99.90
44117;DHT22;29781;49.480;8.512;2023-02-28T02:14:12;-1.00;99.90
44117;DHT22;29781;49.480;8.512;2023-02-28T02:25:10;-1.00;99.90
44117;DHT22;29781;49.480;8.512;2023-02-28T02:30:25;-1.00;99.90
44117;DHT22;29781;49.480;8.512;2023-02-28T02:40:19;-1.00;99.90
44117;DHT22;29781;49.480;8.512;2023-02-28T02:42:48;-1.00;99.90
44117;DHT22;29781;49.480;8.512;2023-02-28T02:46:01;-1.10;99.90
44117;DHT22;29781;49.480;8.512;2023-02-28T02:48:01;-1.10;99.90
44117;DHT22;29781;49.480;8.512;2023-02-28T02:50:29;-1.10;99.90
44117;DHT22;29781;49.480;8.512;2023-02-28T02:52:57;-1.10;99.90
44117;DHT22;29781;49.480;8.512;2023-02-28T02:55:23;-1.20;99.90
44117;DHT22;29781;49.480;8.512;2023-02-28T02:57:51;-1.10;99.90
44117;DHT22;29781;49.480;8.512;2023-02-28T03:00:17;-1.00;99.90
44117;DHT22;29781;49.480;8.512;2023-02-28T03:02:45;-1.00;99.90
44117;DHT22;29781;49.480;8.512;2023-02-28T03:05:18;-1.10;99.90
44117;DHT22;29781;49.480;8.512;2023-02-28T03:07:45;-1.20;99.90
44117;DHT22;29781;49.480;8.512;2023-02-28T03:13:02;-1.20;99.90
44117;DHT22;29781;49.480;8.512;2023-02-28T03:15:32;-1.20;99.90
44117;DHT22;29781;49.480;8.512;2023-02-28T03:18:03;-1.20;99.90
44117;DHT22;29781;49.480;8.512;2023-02-28T03:20:35;-1.20;99.90
44117;DHT22;29781;49.480;8.512;2023-02-28T03:25:43;-1.10;99.90
44117;DHT22;29781;49.480;8.512;2023-02-28T03:28:16;-1.10;99.90
44117;DHT22;29781;49.480;8.512;2023-02-28T03:30:50;-1.10;99.90
44117;DHT22;29781;49.480;8.512;2023-02-28T03:33:24;-1.00;99.90
44117;DHT22;29781;49.480;8.512;2023-02-28T03:35:58;-1.00;99.90
44117;DHT22;29781;49.480;8.512;2023-02-28T03:38:29;-1.10;99.90
44117;DHT22;29781;49.480;8.512;2023-02-28T03:43:43;-1.10;99.90
44117;DHT22;29781;49.480;8.512;2023-02-28T03:46:10;-1.10;99.90
44117;DHT22;29781;49.480;8.512;2023-02-28T03:48:40;-1.10;99.90
44117;DHT22;29781;49.480;8.512;2023-02-28T03:51:06;-1.10;99.90
44117;DHT22;29781;49.480;8.512;2023-02-28T03:53:37;-1.10;99.90
44117;DHT22;29781;49.480;8.512;2023-02-28T03:56:17;-1.10;99.90
44117;DHT22;29781;49.480;8.512;2023-02-28T03:58:56;-1.10;99.90
44117;DHT22;29781;49.480;8.512;2023-02-28T04:01:24;-1.10;99.90
44117;DHT22;29781;49.480;8.512;2023-02-28T04:03:50;-1.10;99.90
44117;DHT22;29781;49.480;8.512;2023-02-28T04:06:17;-1.10;99.90
44117;DHT22;29781;49.480;8.512;2023-02-28T04:08:43;-1.10;99.90
44117;DHT22;29781;49.480;8.512;2023-02-28T04:11:29;-1.10;99.90
44117;DHT22;29781;49.480;8.512;2023-02-28T04:13:56;-1.20;99.90
44117;DHT22;29781;49.480;8.512;2023-02-28T04:16:22;-1.20;99.90
44117;DHT22;29781;49.480;8.512;2023-02-28T04:18:47;-1.20;99.90
44117;DHT22;29781;49.480;8.512;2023-02-28T04:21:13;-1.20;99.90
44117;DHT22;29781;49.480;8.512;2023-02-28T04:23:38;-1.30;99.90
44117;DHT22;29781;49.480;8.512;2023-02-28T04:26:04;-1.30;99.90
44117;DHT22;29781;49.480;8.512;2023-02-28T04:28:30;-1.30;99.90
44117;DHT22;29781;49.480;8.512;2023-02-28T04:30:56;-1.30;99.90
44117;DHT22;29781;49.480;8.512;2023-02-28T04:33:22;-1.30;99.90
44117;DHT22;29781;49.480;8.512;2023-02-28T04:35:47;-1.30;99.90
44117;DHT22;29781;49.480;8.512;2023-02-28T04:38:13;-1.30;99.90
44117;DHT22;29781;49.480;8.512;2023-02-28T04:40:38;-1.40;99.90
44117;DHT22;29781;49.480;8.512;2023-02-28T04:43:04;-1.30;99.90
44117;DHT22;29781;49.480;8.512;2023-02-28T04:45:29;-1.30;99.90
44117;DHT22;29781;49.480;8.512;2023-02-28T04:47:57;-1.30;99.90
44117;DHT22;29781;49.480;8.512;2023-02-28T04:50:23;-1.30;99.90
44117;DHT22;29781;49.480;8.512;2023-02-28T04:52:48;-1.40;99.90
44117;DHT22;29781;49.480;8.512;2023-02-28T04:55:14;-1.40;99.90
44117;DHT22;29781;49.480;8.512;2023-02-28T04:57:39;-1.30;99.90
44117;DHT22;29781;49.480;8.512;2023-02-28T05:00:09;-1.30;99.90
44117;DHT22;29781;49.480;8.512;2023-02-28T05:02:37;-1.30;99.90
44117;DHT22;29781;49.480;8.512;2023-02-28T05:05:02;-1.30;99.90
44117;DHT22;29781;49.480;8.512;2023-02-28T05:07:27;-1.30;99.90
44117;DHT22;29781;49.480;8.512;2023-02-28T05:09:53;-1.30;99.90
44117;DHT22;29781;49.480;8.512;2023-02-28T05:12:18;-1.40;99.90
44117;DHT22;29781;49.480;8.512;2023-02-28T05:14:44;-1.30;99.90
44117;DHT22;29781;49.480;8.512;2023-02-28T05:17:09;-1.30;99.90
44117;DHT22;29781;49.480;8.512;2023-02-28T05:19:35;-1.30;99.90
44117;DHT22;29781;49.480;8.512;2023-02-28T05:22:00;-1.30;99.90
44117;DHT22;29781;49.480;8.512;2023-02-28T05:24:26;-1.20;99.90
44117;DHT22;29781;49.480;8.512;2023-02-28T05:26:52;-1.20;99.90
44117;DHT22;29781;49.480;8.512;2023-02-28T05:29:18;-1.20;99.90
44117;DHT22;29781;49.480;8.512;2023-02-28T05:31:44;-1.20;99.90
44117;DHT22;29781;49.480;8.512;2023-02-28T05:34:09;-1.20;99.90
44117;DHT22;29781;49.480;8.512;2023-02-28T05:36:38;-1.10;99.90
44117;DHT22;29781;49.480;8.512;2023-02-28T05:39:05;-1.20;99.90
44117;DHT22;29781;49.480;8.512;2023-02-28T05:41:30;-1.20;99.90
44117;DHT22;29781;49.480;8.512;2023-02-28T05:43:56;-1.20;99.90
44117;DHT22;29781;49.480;8.512;2023-02-28T05:46:22;-1.20;99.90
44117;DHT22;29781;49.480;8.512;2023-02-28T05:48:47;-1.20;99.90
44117;DHT22;29781;49.480;8.512;2023-02-28T05:51:13;-1.20;99.90
44117;DHT22;29781;49.480;8.512;2023-02-28T05:53:39;-1.20;99.90
44117;DHT22;29781;49.480;8.512;2023-02-28T05:56:04;-1.20;99.90
44117;DHT22;29781;49.480;8.512;2023-02-28T05:58:30;-1.20;99.90
44117;DHT22;29781;49.480;8.512;2023-02-28T06:00:59;-1.20;99.90
44117;DHT22;29781;49.480;8.512;2023-02-28T06:03:24;-1.20;99.90
44117;DHT22;29781;49.480;8.512;2023-02-28T06:05:50;-1.30;99.90
44117;DHT22;29781;49.480;8.512;2023-02-28T06:08:15;-1.20;99.90
44117;DHT22;29781;49.480;8.512;2023-02-28T06:10:41;-1.20;99.90
44117;DHT22;29781;49.480;8.512;2023-02-28T06:13:06;-1.20;99.90
44117;DHT22;29781;49.480;8.512;2023-02-28T06:15:32;-1.20;99.90
44117;DHT22;29781;49.480;8.512;2023-02-28T06:17:58;-1.20;99.90
44117;DHT22;29781;49.480;8.512;2023-02-28T06:20:24;-1.20;99.90
44117;DHT22;29781;49.480;8.512;2023-02-28T06:22:50;-1.20;99.90
44117;DHT22;29781;49.480;8.512;2023-02-28T06:25:16;-1.20;99.90
44117;DHT22;29781;49.480;8.512;2023-02-28T06:27:42;-1.20;99.90
44117;DHT22;29781;49.480;8.512;2023-02-28T06:30:08;-1.20;99.90
44117;DHT22;29781;49.480;8.512;2023-02-28T06:32:34;-1.20;99.90
44117;DHT22;29781;49.480;8.512;2023-02-28T06:35:01;-1.20;99.90
44117;DHT22;29781;49.480;8.512;2023-02-28T06:37:26;-1.20;99.90
44117;DHT22;29781;49.480;8.512;2023-02-28T06:39:52;-1.10;99.90
44117;DHT22;29781;49.480;8.512;2023-02-28T06:42:17;-1.20;99.90
44117;DHT22;29781;49.480;8.512;2023-02-28T06:44:43;-1.20;99.90
44117;DHT22;29781;49.480;8.512;2023-02-28T06:47:08;-1.10;99.90
44117;DHT22;29781;49.480;8.512;2023-02-28T06:49:34;-1.10;99.90
44117;DHT22;29781;49.480;8.512;2023-02-28T06:52:00;-1.10;99.90
44117;DHT22;29781;49.480;8.512;2023-02-28T06:54:25;-1.10;99.90
44117;DHT22;29781;49.480;8.512;2023-02-28T06:56:51;-1.00;99.90
44117;DHT22;29781;49.480;8.512;2023-02-28T06:59:17;-0.90;99.90
44117;DHT22;29781;49.480;8.512;2023-02-28T07:01:42;-0.90;99.90
44117;DHT22;29781;49.480;8.512;2023-02-28T07:04:08;-0.70;99.90
44117;DHT22;29781;49.480;8.512;2023-02-28T07:06:33;-0.70;99.90
44117;DHT22;29781;49.480;8.512;2023-02-28T07:08:59;-0.50;99.90
44117;DHT22;29781;49.480;8.512;2023-02-28T07:11:25;-0.40;99.90
44117;DHT22;29781;49.480;8.512;2023-02-28T07:13:51;-0.20;99.90
44117;DHT22;29781;49.480;8.512;2023-02-28T07:16:17;-0.20;99.90
44117;DHT22;29781;49.480;8.512;2023-02-28T07:18:42;-0.20;99.90
44117;DHT22;29781;49.480;8.512;2023-02-28T07:21:08;-0.10;99.90
44117;DHT22;29781;49.480;8.512;2023-02-28T07:23:34;0.10;99.90
44117;DHT22;29781;49.480;8.512;2023-02-28T07:26:00;0.10;99.90
44117;DHT22;29781;49.480;8.512;2023-02-28T07:28:26;0.10;99.90
44117;DHT22;29781;49.480;8.512;2023-02-28T07:30:51;0.10;99.90
44117;DHT22;29781;49.480;8.512;2023-02-28T07:33:16;0.10;99.90
44117;DHT22;29781;49.480;8.512;2023-02-28T07:35:42;0.10;99.90
44117;DHT22;29781;49.480;8.512;2023-02-28T07:38:08;0.00;99.90
44117;DHT22;29781;49.480;8.512;2023-02-28T07:40:35;0.10;99.90
44117;DHT22;29781;49.480;8.512;2023-02-28T07:43:01;0.20;99.90
44117;DHT22;29781;49.480;8.512;2023-02-28T07:45:27;0.20;99.90
44117;DHT22;29781;49.480;8.512;2023-02-28T07:47:54;0.20;99.90
44117;DHT22;29781;49.480;8.512;2023-02-28T07:50:19;0.30;99.90
44117;DHT22;29781;49.480;8.512;2023-02-28T07:52:45;0.30;99.90
44117;DHT22;29781;49.480;8.512;2023-02-28T07:55:10;0.40;99.90
44117;DHT22;29781;49.480;8.512;2023-02-28T07:57:36;0.50;99.90
44117;DHT22;29781;49.480;8.512;2023-02-28T08:00:03;0.50;99.90
44117;DHT22;29781;49.480;8.512;2023-02-28T08:02:29;0.50;99.90
44117;DHT22;29781;49.480;8.512;2023-02-28T08:04:54;0.60;99.90
44117;DHT22;29781;49.480;8.512;2023-02-28T08:07:20;0.60;99.90
44117;DHT22;29781;49.480;8.512;2023-02-28T08:09:45;0.60;99.90
44117;DHT22;29781;49.480;8.512;2023-02-28T08:12:11;0.60;99.90
44117;DHT22;29781;49.480;8.512;2023-02-28T08:14:37;0.60;99.90
44117;DHT22;29781;49.480;8.512;2023-02-28T08:17:03;0.60;99.90
44117;DHT22;29781;49.480;8.512;2023-02-28T08:19:28;0.70;99.90
44117;DHT22;29781;49.480;8.512;2023-02-28T08:21:54;0.60;99.90
44117;DHT22;29781;49.480;8.512;2023-02-28T08:24:20;0.70;99.90
44117;DHT22;29781;49.480;8.512;2023-02-28T08:26:45;1.00;99.90
44117;DHT22;29781;49.480;8.512;2023-02-28T08:29:10;1.10;99.90
44117;DHT22;29781;49.480;8.512;2023-02-28T08:31:36;1.00;99.90
44117;DHT22;29781;49.480;8.512;2023-02-28T08:34:05;1.30;99.90
44117;DHT22;29781;49.480;8.512;2023-02-28T08:36:31;1.20;99.90
44117;DHT22;29781;49.480;8.512;2023-02-28T08:38:56;1.20;99.90
44117;DHT22;29781;49.480;8.512;2023-02-28T08:41:22;1.10;99.90
44117;DHT22;29781;49.480;8.512;2023-02-28T08:43:47;1.40;99.90
44117;DHT22;29781;49.480;8.512;2023-02-28T08:46:13;1.30;99.90
44117;DHT22;29781;49.480;8.512;2023-02-28T08:48:39;1.40;99.90
44117;DHT22;29781;49.480;8.512;2023-02-28T08:51:06;1.60;99.90
44117;DHT22;29781;49.480;8.512;2023-02-28T08:53:32;1.60;99.90
44117;DHT22;29781;49.480;8.512;2023-02-28T08:56:05;1.70;99.90
44117;DHT22;29781;49.480;8.512;2023-02-28T08:58:31;1.90;99.90
44117;DHT22;29781;49.480;8.512;2023-02-28T09:00:56;1.70;99.90
44117;DHT22;29781;49.480;8.512;2023-02-28T09:03:22;1.70;99.90
44117;DHT22;29781;49.480;8.512;2023-02-28T09:05:54;1.80;99.90
44117;DHT22;29781;49.480;8.512;2023-02-28T09:08:20;2.00;99.90
44117;DHT22;29781;49.480;8.512;2023-02-28T09:10:45;2.90;99.90
44117;DHT22;29781;49.480;8.512;2023-02-28T09:13:11;2.70;99.90
44117;DHT22;29781;49.480;8.512;2023-02-28T09:15:37;2.70;99.90
44117;DHT22;29781;49.480;8.512;2023-02-28T09:18:03;2.80;99.90
44117;DHT22;29781;49.480;8.512;2023-02-28T09:20:28;2.60;99.90
44117;DHT22;29781;49.480;8.512;2023-02-28T09:22:53;3.00;99.90
44117;DHT22;29781;49.480;8.512;2023-02-28T09:25:19;2.50;99.90
44117;DHT22;29781;49.480;8.512;2023-02-28T09:27:44;2.20;99.90
44117;DHT22;29781;49.480;8.512;2023-02-28T09:30:11;2.20;99.90
44117;DHT22;29781;49.480;8.512;2023-02-28T09:32:37;2.30;99.90
44117;DHT22;29781;49.480;8.512;2023-02-28T09:35:03;2.30;99.90
44117;DHT22;29781;49.480;8.512;2023-02-28T09:37:28;2.60;99.90
44117;DHT22;29781;49.480;8.512;2023-02-28T09:39:54;2.80;99.90
44117;DHT22;29781;49.480;8.512;2023-02-28T09:42:41;2.40;99.90
44117;DHT22;29781;49.480;8.512;2023-02-28T09:45:07;2.90;99.90
44117;DHT22;29781;49.480;8.512;2023-02-28T09:47:38;3.00;99.90
44117;DHT22;29781;49.480;8.512;2023-02-28T09:50:20;3.90;99.90
44117;DHT22;29781;49.480;8.512;2023-02-28T09:52:48;4.80;99.90
44117;DHT22;29781;49.480;8.512;2023-02-28T09:55:24;4.90;99.90
44117;DHT22;29781;49.480;8.512;2023-02-28T09:57:53;4.10;99.90
44117;DHT22;29781;49.480;8.512;2023-02-28T10:00:21;3.50;99.90
44117;DHT22;29781;49.480;8.512;2023-02-28T10:02:57;2.80;99.90
44117;DHT22;29781;49.480;8.512;2023-02-28T10:05:28;3.10;99.90
44117;DHT22;29781;49.480;8.512;2023-02-28T10:12:56;3.40;99.90
44117;DHT22;29781;49.480;8.512;2023-02-28T10:15:24;3.40;99.90
44117;DHT22;29781;49.480;8.512;2023-02-28T10:17:53;2.70;99.90
44117;DHT22;29781;49.480;8.512;2023-02-28T10:20:20;2.90;99.90
44117;DHT22;29781;49.480;8.512;2023-02-28T10:22:52;3.00;99.90
44117;DHT22;29781;49.480;8.512;2023-02-28T10:25:22;3.20;99.90
44117;DHT22;29781;49.480;8.512;2023-02-28T10:27:48;3.20;99.90
44117;DHT22;29781;49.480;8.512;2023-02-28T10:30:14;3.20;99.90
44117;DHT22;29781;49.480;8.512;2023-02-28T10:32:39;3.00;99.90
44117;DHT22;29781;49.480;8.512;2023-02-28T10:37:38;2.80;99.90
44117;DHT22;29781;49.480;8.512;2023-02-28T10:40:46;2.90;99.90
44117;DHT22;29781;49.480;8.512;2023-02-28T10:45:21;2.90;99.90
44117;DHT22;29781;49.480;8.512;2023-02-28T10:47:51;3.20;99.90
44117;DHT22;29781;49.480;8.512;2023-02-28T10:52:52;3.70;99.90
44117;DHT22;29781;49.480;8.512;2023-02-28T10:55:22;3.20;99.90
44117;DHT22;29781;49.480;8.512;2023-02-28T10:57:48;3.20;99.90
44117;DHT22;29781;49.480;8.512;2023-02-28T11:00:15;3.30;99.90
44117;DHT22;29781;49.480;8.512;2023-02-28T11:02:41;4.10;99.90
44117;DHT22;29781;49.480;8.512;2023-02-28T11:05:31;4.10;99.90
44117;DHT22;29781;49.480;8.512;2023-02-28T11:07:58;3.90;99.90
44117;DHT22;29781;49.480;8.512;2023-02-28T11:10:25;4.00;99.90
44117;DHT22;29781;49.480;8.512;2023-02-28T11:12:56;4.30;99.90
44117;DHT22;29781;49.480;8.512;2023-02-28T11:15:23;4.80;99.90
44117;DHT22;29781;49.480;8.512;2023-02-28T11:17:53;5.60;99.90
44117;DHT22;29781;49.480;8.512;2023-02-28T11:20:23;4.80;99.90
44117;DHT22;29781;49.480;8.512;2023-02-28T11:22:49;4.70;99.90
44117;DHT22;29781;49.480;8.512;2023-02-28T11:25:23;4.60;99.90
44117;DHT22;29781;49.480;8.512;2023-02-28T11:27:50;5.00;99.90
44117;DHT22;29781;49.480;8.512;2023-02-28T11:30:26;4.40;99.90
44117;DHT22;29781;49.480;8.512;2023-02-28T11:32:52;3.90;99.90
44117;DHT22;29781;49.480;8.512;2023-02-28T11:35:19;4.00;99.90
44117;DHT22;29781;49.480;8.512;2023-02-28T11:37:47;3.80;99.90
44117;DHT22;29781;49.480;8.512;2023-02-28T11:40:17;3.90;99.90
44117;DHT22;29781;49.480;8.512;2023-02-28T11:50:39;4.40;99.90
44117;DHT22;29781;49.480;8.512;2023-02-28T11:53:31;4.90;99.90
44117;DHT22;29781;49.480;8.512;2023-02-28T11:58:33;4.30;99.90
44117;DHT22;29781;49.480;8.512;2023-02-28T12:03:50;4.30;99.90
44117;DHT22;29781;49.480;8.512;2023-02-28T12:11:19;4.10;99.90
44117;DHT22;29781;49.480;8.512;2023-02-28T12:13:51;4.10;99.90
44117;DHT22;29781;49.480;8.512;2023-02-28T12:18:50;4.30;99.90
44117;DHT22;29781;49.480;8.512;2023-02-28T12:21:27;4.20;99.90
44117;DHT22;29781;49.480;8.512;2023-02-28T12:24:15;4.10;99.90
44117;DHT22;29781;49.480;8.512;2023-02-28T12:26:43;4.30;99.90
44117;DHT22;29781;49.480;8.512;2023-02-28T12:31:39;4.60;99.90
44117;DHT22;29781;49.480;8.512;2023-02-28T12:34:07;5.50;99.90
44117;DHT22;29781;49.480;8.512;2023-02-28T12:36:35;7.20;99.90
44117;DHT22;29781;49.480;8.512;2023-02-28T12:39:08;6.30;99.90
44117;DHT22;29781;49.480;8.512;2023-02-28T12:44:01;7.70;96.30
44117;DHT22;29781;49.480;8.512;2023-02-28T12:46:39;6.50;97.60
44117;DHT22;29781;49.480;8.512;2023-02-28T12:49:08;6.00;99.20
44117;DHT22;29781;49.480;8.512;2023-02-28T12:51:35;5.00;99.90
44117;DHT22;29781;49.480;8.512;2023-02-28T12:54:07;4.50;99.90
44117;DHT22;29781;49.480;8.512;2023-02-28T12:56:41;4.60;99.90
44117;DHT22;29781;49.480;8.512;2023-02-28T12:59:10;4.80;99.90
44117;DHT22;29781;49.480;8.512;2023-02-28T13:07:02;4.50;99.90
44117;DHT22;29781;49.480;8.512;2023-02-28T13:09:29;4.40;99.90
44117;DHT22;29781;49.480;8.512;2023-02-28T13:11:55;4.50;99.90
44117;DHT22;29781;49.480;8.512;2023-02-28T13:14:23;4.60;99.90
44117;DHT22;29781;49.480;8.512;2023-02-28T13:16:54;4.80;99.90
44117;DHT22;29781;49.480;8.512;2023-02-28T13:19:21;5.20;99.90
44117;DHT22;29781;49.480;8.512;2023-02-28T13:21:48;5.20;99.90
44117;DHT22;29781;49.480;8.512;2023-02-28T13:24:36;5.40;99.90
44117;DHT22;29781;49.480;8.512;2023-02-28T13:29:30;5.30;99.90
44117;DHT22;29781;49.480;8.512;2023-02-28T13:34:34;4.90;99.90
44117;DHT22;29781;49.480;8.512;2023-02-28T13:37:31;4.70;99.90
44117;DHT22;29781;49.480;8.512;2023-02-28T13:39:58;4.60;99.90
44117;DHT22;29781;49.480;8.512;2023-02-28T13:47:40;4.90;99.90
44117;DHT22;29781;49.480;8.512;2023-02-28T13:53:32;5.00;99.90
44117;DHT22;29781;49.480;8.512;2023-02-28T14:00:35;4.80;99.90
44117;DHT22;29781;49.480;8.512;2023-02-28T14:05:36;4.80;99.90
44117;DHT22;29781;49.480;8.512;2023-02-28T14:08:07;4.90;99.90
44117;DHT22;29781;49.480;8.512;2023-02-28T14:10:42;5.00;99.90
44117;DHT22;29781;49.480;8.512;2023-02-28T14:15:44;4.90;99.90
44117;DHT22;29781;49.480;8.512;2023-02-28T14:18:14;4.90;99.90
44117;DHT22;29781;49.480;8.512;2023-02-28T14:20:41;4.60;99.90
44117;DHT22;29781;49.480;8.512;2023-02-28T14:28:16;4.70;99.90
44117;DHT22;29781;49.480;8.512;2023-02-28T14:36:00;4.60;99.90
44117;DHT22;29781;49.480;8.512;2023-02-28T14:41:12;4.80;99.90
44117;DHT22;29781;49.480;8.512;2023-02-28T14:43:47;4.60;99.90
44117;DHT22;29781;49.480;8.512;2023-02-28T14:46:12;4.70;99.90
44117;DHT22;29781;49.480;8.512;2023-02-28T14:48:38;4.60;99.90
44117;DHT22;29781;49.480;8.512;2023-02-28T14:51:04;4.70;99.90
44117;DHT22;29781;49.480;8.512;2023-02-28T14:53:30;4.80;99.90
44117;DHT22;29781;49.480;8.512;2023-02-28T14:55:55;4.60;99.90
44117;DHT22;29781;49.480;8.512;2023-02-28T14:58:39;4.60;99.90
44117;DHT22;29781;49.480;8.512;2023-02-28T15:01:04;4.60;99.90
44117;DHT22;29781;49.480;8.512;2023-02-28T15:03:37;4.80;99.90
44117;DHT22;29781;49.480;8.512;2023-02-28T15:06:05;4.80;99.90
44117;DHT22;29781;49.480;8.512;2023-02-28T15:08:31;4.70;99.90
44117;DHT22;29781;49.480;8.512;2023-02-28T15:11:02;4.60;99.90
44117;DHT22;29781;49.480;8.512;2023-02-28T15:13:45;4.60;99.90
44117;DHT22;29781;49.480;8.512;2023-02-28T15:16:12;4.50;99.90
44117;DHT22;29781;49.480;8.512;2023-02-28T15:18:44;4.50;99.90
44117;DHT22;29781;49.480;8.512;2023-02-28T15:21:13;4.40;99.90
44117;DHT22;29781;49.480;8.512;2023-02-28T15:23:40;4.40;99.90
44117;DHT22;29781;49.480;8.512;2023-02-28T15:26:10;4.30;99.90
44117;DHT22;29781;49.480;8.512;2023-02-28T15:28:36;4.40;99.90
44117;DHT22;29781;49.480;8.512;2023-02-28T15:31:03;4.60;99.90
44117;DHT22;29781;49.480;8.512;2023-02-28T15:33:51;4.50;99.90
44117;DHT22;29781;49.480;8.512;2023-02-28T15:36:17;4.50;99.90
44117;DHT22;29781;49.480;8.512;2023-02-28T15:38:46;4.40;99.90
44117;DHT22;29781;49.480;8.512;2023-02-28T15:41:23;4.60;99.90
44117;DHT22;29781;49.480;8.512;2023-02-28T15:43:49;4.50;99.90
44117;DHT22;29781;49.480;8.512;2023-02-28T15:46:34;4.40;99.90
44117;DHT22;29781;49.480;8.512;2023-02-28T15:49:00;4.40;99.90
44117;DHT22;29781;49.480;8.512;2023-02-28T15:51:29;4.30;99.90
44117;DHT22;29781;49.480;8.512;2023-02-28T15:54:00;4.40;99.90
44117;DHT22;29781;49.480;8.512;2023-02-28T15:56:26;4.60;99.90
44117;DHT22;29781;49.480;8.512;2023-02-28T15:58:56;4.70;99.90
44117;DHT22;29781;49.480;8.512;2023-02-28T16:01:25;4.90;99.90
44117;DHT22;29781;49.480;8.512;2023-02-28T16:03:54;4.60;99.90
44117;DHT22;29781;49.480;8.512;2023-02-28T16:06:36;4.50;99.90
44117;DHT22;29781;49.480;8.512;2023-02-28T16:09:04;4.50;99.90
44117;DHT22;29781;49.480;8.512;2023-02-28T16:11:33;4.40;99.90
44117;DHT22;29781;49.480;8.512;2023-02-28T16:13:59;4.40;99.90
44117;DHT22;29781;49.480;8.512;2023-02-28T16:16:25;4.40;99.90
44117;DHT22;29781;49.480;8.512;2023-02-28T16:18:51;4.40;99.90
44117;DHT22;29781;49.480;8.512;2023-02-28T16:21:17;4.30;99.90
44117;DHT22;29781;49.480;8.512;2023-02-28T16:23:42;4.40;99.90
44117;DHT22;29781;49.480;8.512;2023-02-28T16:26:08;4.40;99.90
44117;DHT22;29781;49.480;8.512;2023-02-28T16:28:36;4.40;99.90
44117;DHT22;29781;49.480;8.512;2023-02-28T16:31:04;4.40;99.90
44117;DHT22;29781;49.480;8.512;2023-02-28T16:33:30;4.40;99.90
44117;DHT22;29781;49.480;8.512;2023-02-28T16:35:56;4.40;99.90
44117;DHT22;29781;49.480;8.512;2023-02-28T16:38:22;4.30;99.90
44117;DHT22;29781;49.480;8.512;2023-02-28T16:40:50;4.30;99.90
44117;DHT22;29781;49.480;8.512;2023-02-28T16:43:17;4.40;99.90
44117;DHT22;29781;49.480;8.512;2023-02-28T16:45:44;4.30;99.90
44117;DHT22;29781;49.480;8.512;2023-02-28T16:48:11;4.40;99.90
44117;DHT22;29781;49.480;8.512;2023-02-28T16:50:37;4.30;99.90
44117;DHT22;29781;49.480;8.512;2023-02-28T16:53:03;4.30;99.90
44117;DHT22;29781;49.480;8.512;2023-02-28T16:55:28;4.30;99.90
44117;DHT22;29781;49.480;8.512;2023-02-28T16:57:58;4.20;99.90
44117;DHT22;29781;49.480;8.512;2023-02-28T17:00:24;4.20;99.90
44117;DHT22;29781;49.480;8.512;2023-02-28T17:02:50;4.20;99.90
44117;DHT22;29781;49.480;8.512;2023-02-28T17:05:16;4.10;99.90
44117;DHT22;29781;49.480;8.512;2023-02-28T17:07:42;4.10;99.90
44117;DHT22;29781;49.480;8.512;2023-02-28T17:12:42;4.10;99.90
44117;DHT22;29781;49.480;8.512;2023-02-28T17:15:09;4.00;99.90
44117;DHT22;29781;49.480;8.512;2023-02-28T17:17:34;4.00;99.90
44117;DHT22;29781;49.480;8.512;2023-02-28T17:20:00;4.00;99.90
44117;DHT22;29781;49.480;8.512;2023-02-28T17:22:25;4.00;99.90
44117;DHT22;29781;49.480;8.512;2023-02-28T17:24:51;4.00;99.90
44117;DHT22;29781;49.480;8.512;2023-02-28T17:27:20;3.90;99.90
44117;DHT22;29781;49.480;8.512;2023-02-28T17:29:46;3.90;99.90
44117;DHT22;29781;49.480;8.512;2023-02-28T17:32:12;3.90;99.90
44117;DHT22;29781;49.480;8.512;2023-02-28T17:34:37;3.80;99.90
44117;DHT22;29781;49.480;8.512;2023-02-28T17:37:03;3.80;99.90